Time;durP1;ratioP1;P1;durP2;ratioP2;P2;SDS_P1;SDS_P2;PMS_P1;PMS_P2;Temp;Humidity;BMP_temperature;BMP_pressure;BME280_temperature;BME280_humidity;BME280_pressure;Samples;Min_cycle;Max_cycle;Signal;HPM_P1;HPM_P2
2022/07/05 00:02:23;;;;;;;;;;;;;;;;;;5036674;28;19913;-75
2022/07/05 00:04:50;;;;;;;;;;;;;;;;;;5041778;28;20362;-76
2022/07/05 00:07:19;;;;;;;;;;;;;;;;;;5024000;28;19962;-75
2022/07/05 00:09:45;;;;;;;;;;;;;;;;;;5040459;28;20051;-75
2022/07/05 00:12:13;;;;;;;;;;;;;;;;;;5023846;28;20133;-75
2022/07/05 00:14:38;;;;;;;;;;;;;;;;;;5030842;28;20400;-75
2022/07/05 00:17:04;;;;;;;;;;;;;;;;;;5028456;28;19921;-76
2022/07/05 00:19:30;;;;;;;;;;;;;;;;;;5028566;28;19959;-75
2022/07/05 00:21:57;;;;;;;;;;;;;;;;;;5026882;28;19966;-76
2022/07/05 00:24:23;;;;;;;;;;;;;;;;;;5015587;28;20644;-75
2022/07/05 00:26:49;;;;;;;;;;;;;;;;;;5029048;28;20039;-75
2022/07/05 00:29:14;;;;;;;;;;;;;;;;;;5031429;28;19939;-75
2022/07/05 00:31:40;;;;;;;;;;;;;;;;;;5035320;28;19912;-75
2022/07/05 00:34:06;;;;;;;;;;;;;;;;;;5030484;28;19913;-75
2022/07/05 00:36:32;;;;;;;;;;;;;;;;;;5019207;28;20229;-75
2022/07/05 00:38:58;;;;;;;;;;;;;;;;;;5020582;28;19924;-75
2022/07/05 00:41:24;;;;;;;;;;;;;;;;;;5025546;28;19913;-76
2022/07/05 00:43:50;;;;;;;;;;;;;;;;;;5025976;28;20416;-75
2022/07/05 00:46:15;;;;;;;;;;;;;;;;;;5026983;28;20376;-75
2022/07/05 00:48:41;;;;;;;;;;;;;;;;;;5021090;28;19986;-75
2022/07/05 00:51:07;;;;;;;;;;;14.10;99.90;;;;;;5026060;28;19936;-75
2022/07/05 00:53:33;;;;;;;;;;;;;;;;;;5025211;28;21776;-75
2022/07/05 00:55:58;;;;;;;;;;;;;;;;;;5027386;28;19996;-76
2022/07/05 00:58:24;;;;;;;;;;;;;;;;;;5025614;28;19932;-76
2022/07/05 01:00:50;;;;;;;;;;;;;;;;;;5029756;28;20092;-76
2022/07/05 01:03:16;;;;;;;;;;;;;;;;;;5023375;28;19987;-76
2022/07/05 01:05:42;;;;;;;;;;;;;;;;;;5035014;28;19909;-75
2022/07/05 01:08:08;;;;;;;;;;;;;;;;;;5026070;28;19917;-75
2022/07/05 01:10:34;;;;;;;;;;;;;;;;;;5023545;28;19913;-75
2022/07/05 01:13:00;;;;;;;;;;;;;;;;;;5014825;28;20515;-75
2022/07/05 01:15:26;;;;;;;;;;;;;;;;;;5014635;28;19916;-76
2022/07/05 01:17:52;;;;;;;;;;;;;;;;;;5028778;28;19932;-75
2022/07/05 01:20:17;;;;;;;;;;;;;;;;;;5021960;28;19921;-75
2022/07/05 01:22:43;;;;;;;;;;;;;;;;;;5026438;28;19921;-75
2022/07/05 01:25:09;;;;;;;;;;;;;;;;;;5030548;28;20007;-75
2022/07/05 01:27:35;;;;;;;0.68;0.30;;;;;;;;;;5041695;28;19916;-75
2022/07/05 01:30:01;;;;;;;2.97;0.85;;;;;;;;;;5024303;28;20467;-76
2022/07/05 01:32:28;;;;;;;0.73;0.52;;;;;;;;;;5032747;28;20405;-75
2022/07/05 01:34:54;;;;;;;1.20;0.63;;;;;;;;;;5037491;28;20416;-74
2022/07/05 01:37:20;;;;;;;0.85;0.55;;;;;;;;;;5023839;28;20952;-75
2022/07/05 01:39:46;;;;;;;2.03;0.60;;;;;;;;;;5036528;28;20494;-75
2022/07/05 01:42:12;;;;;;;1.17;0.50;;;;;;;;;;5021951;28;20436;-75
2022/07/05 01:44:38;;;;;;;0.67;0.40;;;;;;;;;;5026843;28;20920;-74
2022/07/05 01:47:05;;;;;;;1.00;0.50;;;;;;;;;;5017604;28;20414;-75
2022/07/05 01:49:35;;;;;;;0.93;0.50;;;;;;;;;;5027357;28;20406;-75
2022/07/05 01:52:03;;;;;;;2.03;0.55;;;;;;;;;;5029272;28;20426;-75
2022/07/05 01:54:29;;;;;;;0.80;0.52;;;;;;;;;;5014817;28;20492;-75
2022/07/05 01:56:55;;;;;;;0.95;0.50;;;;;;;;;;5024193;28;20905;-75
2022/07/05 01:59:21;;;;;;;0.55;0.40;;;;;;;;;;5029483;28;20397;-76
2022/07/05 02:01:47;;;;;;;0.90;0.40;;;;;;;;;;5012977;28;20490;-75
2022/07/05 02:04:13;;;;;;;0.80;0.60;;;;;;;;;;5032082;28;20411;-75
2022/07/05 02:06:39;;;;;;;0.63;0.60;;;;;;;;;;5030221;28;20427;-75
2022/07/05 02:09:06;;;;;;;1.50;0.50;;;;;;;;;;5026289;28;20405;-75
2022/07/05 02:11:32;;;;;;;0.85;0.30;;;;;;;;;;5027082;28;20397;-76
2022/07/05 02:13:58;;;;;;;0.95;0.45;;;;;;;;;;5029333;28;20401;-75
2022/07/05 02:16:25;;;;;;;0.85;0.40;;;;;;;;;;5019362;28;20405;-75
2022/07/05 02:18:51;;;;;;;3.20;0.60;;;;;;;;;;5023566;28;20410;-75
2022/07/05 02:21:17;;;;;;;1.33;0.43;;;;;;;;;;5027347;28;20995;-75
2022/07/05 02:23:43;;;;;;;0.82;0.32;;;;;;;;;;5016018;28;20407;-75
2022/07/05 02:26:09;;;;;;;0.57;0.32;;;;;;;;;;5020031;28;20842;-75
2022/07/05 02:28:35;;;;;;;0.70;0.35;;;;;;;;;;5013034;28;20828;-75
2022/07/05 02:31:01;;;;;;;0.93;0.50;;;;;;;;;;5019782;28;20401;-74
2022/07/05 02:33:27;;;;;;;0.82;0.65;;;;;;;;;;5016081;28;20417;-75
2022/07/05 02:35:53;;;;;;;0.65;0.32;;;;;;;;;;5030480;28;20538;-75
2022/07/05 02:38:19;;;;;;;0.80;0.57;;;;;;;;;;5028506;28;20429;-75
2022/07/05 02:40:45;;;;;;;0.77;0.43;;;;;;;;;;5026595;28;20544;-75
2022/07/05 02:43:11;;;;;;;0.80;0.50;;;;;;;;;;5024637;28;20413;-75
2022/07/05 02:45:37;;;;;;;0.55;0.40;;;;;;;;;;5023499;28;20405;-77
2022/07/05 02:48:03;;;;;;;0.80;0.45;;;;;;;;;;5031934;28;20475;-75
2022/07/05 02:50:29;;;;;;;0.80;0.50;;;;;;;;;;5037937;28;20484;-75
2022/07/05 02:52:55;;;;;;;0.60;0.47;;;;;;;;;;5027174;28;20417;-75
2022/07/05 02:55:21;;;;;;;0.60;0.40;;;;;;;;;;5016169;28;21076;-75
2022/07/05 02:57:46;;;;;;;0.77;0.35;;;;;;;;;;5014043;28;22111;-75
2022/07/05 03:00:13;;;;;;;0.70;0.45;;;;;;;;;;5033026;28;20410;-75
2022/07/05 03:02:39;;;;;;;1.88;0.75;;;;;;;;;;5032420;28;20432;-75
2022/07/05 03:05:05;;;;;;;2.47;0.60;;;;;;;;;;5024821;28;20908;-75
2022/07/05 03:07:31;;;;;;;1.30;0.63;;;;;;;;;;5029999;28;20893;-76
2022/07/05 03:09:57;;;;;;;1.00;0.60;;;;;;;;;;5043005;28;20401;-75
2022/07/05 03:12:23;;;;;;;1.60;0.30;;;;;;;;;;5028315;28;20431;-75
2022/07/05 03:14:49;;;;;;;0.65;0.30;;;;;;;;;;5027972;28;21031;-75
2022/07/05 03:17:15;;;;;;;0.60;0.30;;;;;;;;;;5034764;28;20512;-75
2022/07/05 03:19:40;;;;;;;0.35;0.20;;;;;;;;;;5024638;28;20562;-75
2022/07/05 03:22:06;;;;;;;0.65;0.35;;;;;;;;;;5028433;28;20409;-75
2022/07/05 03:24:32;;;;;;;0.47;0.30;;;;;;;;;;5034801;28;20401;-74
2022/07/05 03:26:58;;;;;;;0.60;0.35;;;;;;;;;;5031559;28;20506;-75
2022/07/05 03:29:24;;;;;;;0.47;0.40;;;;;;;;;;5035624;28;20425;-75
2022/07/05 03:31:50;;;;;;;0.77;0.57;;;;;;;;;;5038102;28;20401;-75
2022/07/05 03:34:16;;;;;;;1.58;0.52;;;;;;;;;;5042056;28;20839;-75
2022/07/05 03:36:42;;;;;;;1.02;0.52;;;;;;;;;;5036176;28;20405;-75
2022/07/05 03:39:08;;;;;;;0.85;0.40;;;;;;;;;;5033111;28;20823;-75
2022/07/05 03:41:34;;;;;;;0.50;0.40;;;;;;;;;;5036145;28;20397;-75
2022/07/05 03:44:00;;;;;;;0.88;0.50;;;;;;;;;;5036612;28;20444;-75
2022/07/05 03:46:26;;;;;;;1.08;0.50;;;;;;;;;;5036063;28;20403;-75
2022/07/05 03:48:52;;;;;;;0.67;0.40;;;13.30;99.90;;;;;;5040920;28;20944;-75
2022/07/05 03:51:18;;;;;;;0.75;0.40;;;;;;;;;;5040643;28;20820;-75
2022/07/05 03:53:44;;;;;;;1.98;0.60;;;;;;;;;;5036230;28;20489;-75
2022/07/05 03:56:10;;;;;;;2.57;0.70;;;;;;;;;;5029723;28;20711;-75
2022/07/05 03:58:36;;;;;;;1.15;0.32;;;;;;;;;;5030032;28;21269;-75
2022/07/05 04:01:02;;;;;;;2.20;0.40;;;;;;;;;;5034804;28;20411;-74
2022/07/05 04:03:28;;;;;;;1.15;0.50;;;;;;;;;;5035204;28;20415;-75
2022/07/05 04:05:53;;;;;;;0.53;0.30;;;;;;;;;;5037522;28;20412;-75
2022/07/05 04:08:20;;;;;;;0.45;0.40;;;;;;;;;;5032643;28;20477;-74
2022/07/05 04:10:45;;;;;;;0.50;0.32;;;;;;;;;;5038049;28;20873;-74
2022/07/05 04:13:11;;;;;;;1.10;0.50;;;;;;;;;;5036190;28;20405;-75
2022/07/05 04:15:37;;;;;;;0.60;0.40;;;;;;;;;;5039579;28;20901;-74
2022/07/05 04:18:03;;;;;;;0.80;0.35;;;;;;;;;;5030544;28;20425;-75
2022/07/05 04:20:29;;;;;;;0.70;0.30;;;;;;;;;;5034757;28;20413;-76
2022/07/05 04:22:56;;;;;;;1.27;0.80;;;;;;;;;;5027340;28;20420;-75
2022/07/05 04:25:22;;;;;;;0.57;0.30;;;;;;;;;;5035616;28;20417;-76
2022/07/05 04:27:49;;;;;;;1.30;0.40;;;;;;;;;;5029462;28;20463;-76
2022/07/05 04:30:16;;;;;;;0.90;0.50;;;;;;;;;;5039941;28;20414;-76
2022/07/05 04:32:42;;;;;;;0.70;0.50;;;;;;;;;;5042526;28;20441;-76
2022/07/05 04:35:08;;;;;;;0.70;0.30;;;;;;;;;;5023993;28;21368;-76
2022/07/05 04:37:34;;;;;;;1.02;0.30;;;;;;;;;;5029227;28;20684;-76
2022/07/05 04:40:00;;;;;;;1.80;0.50;;;;;;;;;;5036999;28;20409;-76
2022/07/05 04:42:26;;;;;;;0.70;0.40;;;;;;;;;;5025322;28;20466;-76
2022/07/05 04:44:52;;;;;;;0.68;0.47;;;;;;;;;;5035950;28;20452;-75
2022/07/05 04:47:18;;;;;;;1.42;0.50;;;;;;;;;;5034908;28;20538;-75
2022/07/05 04:49:44;;;;;;;0.80;0.50;;;;;;;;;;5040033;28;20526;-76
2022/07/05 04:52:09;;;;;;;0.88;0.50;;;13.70;99.90;;;;;;5035531;28;20409;-76
2022/07/05 04:54:38;;;;;;;0.43;0.30;;;;;;;;;;5030609;28;20409;-75
2022/07/05 04:57:05;;;;;;;0.70;0.35;;;;;;;;;;5034001;28;20428;-75
2022/07/05 04:59:31;;;;;;;0.70;0.40;;;;;;;;;;5038397;28;20405;-76
2022/07/05 05:01:57;;;;;;;0.60;0.30;;;;;;;;;;5040152;28;20409;-76
2022/07/05 05:04:23;;;;;;;0.90;0.40;;;;;;;;;;5031498;28;20409;-75
2022/07/05 05:06:49;;;;;;;1.60;0.30;;;;;;;;;;5035684;28;20663;-75
2022/07/05 05:09:14;;;;;;;1.10;0.50;;;;;;;;;;5043317;28;20946;-75
2022/07/05 05:11:40;;;;;;;1.30;0.40;;;;;;;;;;5033755;28;20399;-75
2022/07/05 05:14:06;;;;;;;1.43;0.50;;;;;;;;;;5038169;28;20459;-76
2022/07/05 05:16:32;;;;;;;0.65;0.38;;;;;;;;;;5033062;28;20418;-76
2022/07/05 05:18:58;;;;;;;2.95;0.40;;;;;;;;;;5041537;28;20427;-76
2022/07/05 05:21:24;;;;;;;1.13;0.30;;;;;;;;;;5036040;28;20508;-76
2022/07/05 05:23:50;;;;;;;0.45;0.25;;;;;;;;;;5037509;28;20436;-76
2022/07/05 05:26:16;;;;;;;2.72;0.50;;;;;;;;;;5035667;28;20934;-76
2022/07/05 05:28:42;;;;;;;0.70;0.40;;;;;;;;;;5037444;28;20430;-76
2022/07/05 05:31:08;;;;;;;0.43;0.30;;;;;;;;;;5034831;28;20409;-76
2022/07/05 05:33:34;;;;;;;0.85;0.45;;;;;;;;;;5044736;28;20425;-76
2022/07/05 05:36:01;;;;;;;0.85;0.40;;;;;;;;;;5044717;28;20497;-76
2022/07/05 05:38:27;;;;;;;0.43;0.28;;;;;;;;;;5038733;28;20425;-76
2022/07/05 05:40:53;;;;;;;0.85;0.30;;;;;;;;;;5038395;28;20797;-75
2022/07/05 05:43:19;;;;;;;1.55;0.35;;;;;;;;;;5044586;28;20409;-76
2022/07/05 05:45:45;;;;;;;3.20;0.40;;;;;;;;;;5041076;28;20472;-76
2022/07/05 05:48:11;;;;;;;0.95;0.35;;;;;;;;;;5033691;28;20449;-76
2022/07/05 05:50:40;;;;;;;0.93;0.40;;;;;;;;;;5041114;28;20909;-76
2022/07/05 05:53:07;;;;;;;0.80;0.30;;;;;;;;;;5042632;28;20472;-75
2022/07/05 05:55:33;;;;;;;0.40;0.30;;;;;;;;;;5032527;28;20550;-75
2022/07/05 05:58:15;;;;;;;0.50;0.30;;;;;;;;;;5028582;28;20512;-75
2022/07/05 06:00:41;;;;;;;0.60;0.35;;;;;;;;;;5039488;28;20988;-76
2022/07/05 06:03:07;;;;;;;0.60;0.40;;;;;;;;;;5037976;28;20401;-76
2022/07/05 06:05:33;;;;;;;0.90;0.30;;;;;;;;;;5038934;28;20405;-76
2022/07/05 06:07:59;;;;;;;0.80;0.30;;;;;;;;;;5037371;28;20808;-75
2022/07/05 06:10:35;;;;;;;0.60;0.40;;;;;;;;;;5044409;28;20451;-75
2022/07/05 06:13:03;;;;;;;0.50;0.30;;;;;;;;;;5044611;28;20480;-75
2022/07/05 06:15:29;;;;;;;1.33;0.30;;;;;;;;;;5031719;28;20773;-76
2022/07/05 06:17:55;;;;;;;5.00;0.30;;;;;;;;;;5042182;28;20427;-76
2022/07/05 06:20:28;;;;;;;0.60;0.40;;;18.60;99.90;;;;;;5040612;28;20403;-76
2022/07/05 06:22:54;;;;;;;0.45;0.20;;;;;;;;;;5032993;28;20032;-76
2022/07/05 06:25:20;;;;;;;0.55;0.20;;;19.70;99.90;;;;;;5036295;28;20356;-76
2022/07/05 06:27:48;;;;;;;2.53;0.40;;;19.90;99.90;;;;;;5033428;28;20802;-76
2022/07/05 06:30:19;;;;;;;2.28;0.73;;;20.50;99.90;;;;;;5038312;28;20024;-77
2022/07/05 06:32:45;;;;;;;;;;;21.20;99.90;;;;;;5041499;28;20590;-77
2022/07/05 06:35:10;;;;;;;;;;;21.70;99.90;;;;;;5044841;28;19967;-76
2022/07/05 06:37:40;;;;;;;;;;;18.70;97.10;;;;;;5037696;28;19924;-76
2022/07/05 06:40:05;;;;;;;;;;;23.80;94.40;;;;;;5034080;28;19916;-76
2022/07/05 06:42:31;;;;;;;;;;;26.40;92.30;;;;;;5036564;28;19915;-74
2022/07/05 06:44:56;;;;;;;;;;;26.90;87.00;;;;;;5037354;28;19917;-76
2022/07/05 06:47:22;;;;;;;;;;;29.00;79.20;;;;;;5042294;28;20387;-75
2022/07/05 06:49:47;;;;;;;;;;;30.20;71.20;;;;;;5045642;28;20053;-75
2022/07/05 06:52:13;;;;;;;;;;;32.50;56.10;;;;;;5038662;28;19917;-76
2022/07/05 06:54:38;;;;;;;;;;;33.10;54.10;;;;;;5035830;28;19931;-77
2022/07/05 06:57:05;;;;;;;;;;;34.30;47.40;;;;;;5040808;28;19921;-76
2022/07/05 06:59:30;;;;;;;;;;;34.30;45.30;;;;;;5038001;28;19915;-76
2022/07/05 07:01:56;;;;;;;;;;;35.00;44.20;;;;;;5035555;28;19917;-76
2022/07/05 07:04:21;;;;;;;;;;;35.30;42.50;;;;;;5036443;28;20343;-77
2022/07/05 07:06:47;;;;;;;;;;;35.60;43.00;;;;;;5036043;28;19909;-76
2022/07/05 07:09:18;;;;;;;;;;;35.80;41.10;;;;;;5037049;28;19915;-77
2022/07/05 07:11:44;;;;;;;;;;;35.30;39.30;;;;;;5048299;28;20777;-77
2022/07/05 07:14:10;;;;;;;;;;;34.70;41.00;;;;;;5044730;28;20003;-76
2022/07/05 07:16:36;;;;;;;;;;;35.20;40.30;;;;;;5043774;28;20355;-76
2022/07/05 07:19:01;;;;;;;;;;;34.00;39.80;;;;;;5043270;28;19921;-76
2022/07/05 07:21:26;;;;;;;;;;;33.90;40.60;;;;;;5038374;28;19987;-76
2022/07/05 07:23:52;;;;;;;;;;;33.70;42.10;;;;;;5039478;28;20012;-76
2022/07/05 07:26:17;;;;;;;;;;;33.00;39.50;;;;;;5042904;28;19913;-76
2022/07/05 07:28:43;;;;;;;;;;;32.60;40.90;;;;;;5048415;28;19916;-76
2022/07/05 07:31:08;;;;;;;;;;;32.20;44.00;;;;;;5035092;28;20039;-76
2022/07/05 07:33:34;;;;;;;;;;;31.90;44.40;;;;;;5049179;28;20369;-76
2022/07/05 07:35:59;;;;;;;;;;;32.30;41.90;;;;;;5045376;28;20373;-76
2022/07/05 07:38:25;;;;;;;;;;;32.50;40.70;;;;;;5048336;28;19927;-76
2022/07/05 07:40:51;;;;;;;;;;;33.10;41.20;;;;;;5041276;28;20300;-76
2022/07/05 07:43:17;;;;;;;;;;;33.70;40.90;;;;;;5049856;28;19912;-76
2022/07/05 07:45:43;;;;;;;;;;;33.60;38.50;;;;;;5034877;28;19917;-76
2022/07/05 07:48:08;;;;;;;;;;;33.20;39.10;;;;;;5047007;28;19913;-76
2022/07/05 07:50:34;;;;;;;;;;;;;;;;;;5040787;28;19944;-75
2022/07/05 07:52:59;;;;;;;;;;;32.60;40.60;;;;;;5047091;28;19959;-76
2022/07/05 07:55:25;;;;;;;;;;;32.20;42.30;;;;;;5047764;28;20012;-76
2022/07/05 07:57:51;;;;;;;;;;;;;;;;;;5049375;28;19925;-76
2022/07/05 08:00:16;;;;;;;;;;;32.90;39.70;;;;;;5047699;28;19949;-76
2022/07/05 08:02:42;;;;;;;;;;;;;;;;;;5031042;28;19924;-76
2022/07/05 08:05:09;;;;;;;;;;;33.50;38.80;;;;;;5047210;28;19984;-76
2022/07/05 08:07:35;;;;;;;;;;;33.60;40.60;;;;;;5043311;28;19924;-76
2022/07/05 08:10:00;;;;;;;;;;;32.90;39.90;;;;;;5051541;28;19905;-75
2022/07/05 08:12:26;;;;;;;;;;;32.40;41.30;;;;;;5046479;28;19918;-75
2022/07/05 08:14:51;;;;;;;;;;;31.50;41.10;;;;;;5042395;28;19962;-76
2022/07/05 08:17:20;;;;;;;;;;;32.00;41.50;;;;;;5044253;28;19966;-76
2022/07/05 08:22:30;;;;;;;;;;;31.10;43.90;;;;;;5049490;28;20492;-77
2022/07/05 08:24:55;;;;;;;;;;;30.10;44.70;;;;;;5046530;28;19913;-76
2022/07/05 08:27:21;;;;;;;;;;;31.00;45.50;;;;;;5050016;28;20357;-76
2022/07/05 08:29:47;;;;;;;;;;;;;;;;;;5046589;28;19917;-77
2022/07/05 08:32:12;;;;;;;;;;;31.40;43.70;;;;;;5040221;28;19920;-75
2022/07/05 08:34:38;;;;;;;;;;;30.90;45.40;;;;;;5045973;28;19913;-75
2022/07/05 08:37:04;;;;;;;;;;;29.60;44.80;;;;;;5037869;28;19973;-75
2022/07/05 08:39:30;;;;;;;;;;;30.50;44.20;;;;;;5046963;28;20361;-76
2022/07/05 08:41:55;;;;;;;;;;;;;;;;;;5049040;28;20376;-76
2022/07/05 08:44:22;;;;;;;;;;;31.70;42.90;;;;;;5046611;28;19912;-76
2022/07/05 08:46:48;;;;;;;;;;;32.50;39.90;;;;;;5044858;28;19920;-76
2022/07/05 08:49:14;;;;;;;;;;;33.90;38.60;;;;;;5046463;28;19909;-76
2022/07/05 08:51:40;;;;;;;;;;;35.50;35.70;;;;;;5037620;28;19924;-76
2022/07/05 08:54:07;;;;;;;;;;;36.10;34.70;;;;;;5049369;28;19999;-77
2022/07/05 08:56:34;;;;;;;;;;;35.60;34.60;;;;;;5046991;28;20067;-76
2022/07/05 08:58:59;;;;;;;;;;;36.10;32.50;;;;;;5047020;28;19927;-76
2022/07/05 09:01:25;;;;;;;;;;;37.20;33.70;;;;;;5050492;28;19942;-76
2022/07/05 09:03:51;;;;;;;;;;;36.80;34.40;;;;;;5047170;28;19995;-76
2022/07/05 09:06:21;;;;;;;;;;;36.40;31.70;;;;;;5044894;28;19908;-76
2022/07/05 09:08:47;;;;;;;;;;;37.30;31.40;;;;;;5037059;28;22402;-76
2022/07/05 09:11:14;;;;;;;;;;;37.70;31.80;;;;;;5039615;28;19916;-76
2022/07/05 09:13:41;;;;;;;;;;;38.00;32.90;;;;;;5046749;28;20321;-76
2022/07/05 09:16:07;;;;;;;;;;;38.20;32.20;;;;;;5044555;28;20392;-77
2022/07/05 09:18:41;;;;;;;;;;;39.40;30.00;;;;;;5046742;28;19966;-77
2022/07/05 09:21:14;;;;;;;;;;;39.90;29.20;;;;;;5041092;28;19961;-78
2022/07/05 09:23:39;;;;;;;;;;;39.90;29.90;;;;;;5046236;28;19916;-77
2022/07/05 09:26:05;;;;;;;;;;;39.00;28.60;;;;;;5041841;28;20379;-77
2022/07/05 09:28:30;;;;;;;;;;;38.50;30.40;;;;;;5048347;28;19912;-76
2022/07/05 09:30:56;;;;;;;;;;;36.20;32.20;;;;;;5039432;28;20408;-76
2022/07/05 09:33:22;;;;;;;;;;;;;;;;;;5035527;28;19915;-77
2022/07/05 09:35:48;;;;;;;;;;;;;;;;;;5045654;28;20320;-76
2022/07/05 09:38:16;;;;;;;;;;;31.00;38.60;;;;;;5043759;28;19923;-76
2022/07/05 09:40:47;;;;;;;;;;;30.60;41.80;;;;;;5040383;28;20359;-77
2022/07/05 09:43:14;;;;;;;;;;;28.50;41.00;;;;;;5036921;28;19952;-77
2022/07/05 09:45:40;;;;;;;;;;;;;;;;;;5046475;28;20574;-77
2022/07/05 09:48:08;;;;;;;;;;;27.80;44.80;;;;;;5044964;28;19961;-77
2022/07/05 09:50:35;;;;;;;;;;;28.30;47.30;;;;;;5040242;28;19939;-76
2022/07/05 09:53:00;;;;;;;;;;;28.90;47.40;;;;;;5040484;28;19959;-77
2022/07/05 09:55:26;;;;;;;;;;;;;;;;;;5041526;28;19952;-77
2022/07/05 09:57:52;;;;;;;;;;;28.40;42.50;;;;;;5045393;28;19920;-76
2022/07/05 10:00:20;;;;;;;;;;;28.20;44.80;;;;;;5045132;28;19909;-76
2022/07/05 10:03:01;;;;;;;;;;;27.80;44.70;;;;;;5048057;28;20368;-77
2022/07/05 10:05:27;;;;;;;;;;;;;;;;;;5047235;28;19909;-76
2022/07/05 10:07:53;;;;;;;;;;;;;;;;;;5041153;28;19951;-77
2022/07/05 10:10:18;;;;;;;;;;;;;;;;;;5037204;28;19951;-76
2022/07/05 10:12:45;;;;;;;;;;;26.80;48.00;;;;;;5039757;28;19905;-77
2022/07/05 10:15:11;;;;;;;;;;;;;;;;;;5040203;28;19924;-77
2022/07/05 10:17:39;;;;;;;;;;;27.40;50.10;;;;;;5045212;28;20284;-77
2022/07/05 10:20:05;;;;;;;;;;;;;;;;;;5045860;28;19923;-77
2022/07/05 10:22:30;;;;;;;;;;;28.10;46.20;;;;;;5042557;28;19912;-76
2022/07/05 10:25:00;;;;;;;;;;;28.00;46.10;;;;;;5042427;28;20366;-76
2022/07/05 10:27:27;;;;;;;;;;;28.00;45.70;;;;;;5037219;28;20039;-76
2022/07/05 10:29:52;;;;;;;;;;;27.60;45.70;;;;;;5043248;28;19913;-77
2022/07/05 10:32:18;;;;;;;;;;;27.10;46.00;;;;;;5041335;28;20296;-77
2022/07/05 10:34:46;;;;;;;;;;;;;;;;;;5042830;28;19908;-77
2022/07/05 10:37:12;;;;;;;;;;;26.60;48.50;;;;;;5043994;28;20288;-77
2022/07/05 10:39:37;;;;;;;;;;;26.70;49.50;;;;;;5039506;28;19915;-76
2022/07/05 10:42:03;;;;;;;;;;;;;;;;;;5043213;28;19908;-76
2022/07/05 10:44:29;;;;;;;;;;;;;;;;;;5045338;28;19909;-76
2022/07/05 10:46:55;;;;;;;;;;;;;;;;;;5046442;28;20003;-77
2022/07/05 10:49:20;;;;;;;;;;;26.20;49.10;;;;;;5046899;28;20160;-77
2022/07/05 10:51:47;;;;;;;;;;;26.20;51.60;;;;;;5041507;28;19983;-76
2022/07/05 10:54:12;;;;;;;;;;;26.30;47.80;;;;;;5045147;28;19913;-77
2022/07/05 10:56:38;;;;;;;;;;;26.50;48.10;;;;;;5045637;28;19908;-77
2022/07/05 10:59:05;;;;;;;;;;;27.20;48.90;;;;;;5037390;28;20020;-77
2022/07/05 11:01:31;;;;;;;;;;;27.10;47.60;;;;;;5040568;28;20057;-77
2022/07/05 11:03:57;;;;;;;;;;;;;;;;;;5034490;28;19909;-75
2022/07/05 11:06:23;;;;;;;;;;;;;;;;;;5036538;28;19913;-76
2022/07/05 11:08:58;;;;;;;;;;;28.80;47.80;;;;;;5040284;28;19908;-77
2022/07/05 11:11:30;;;;;;;;;;;28.10;44.90;;;;;;5037477;28;19924;-77
2022/07/05 11:13:58;;;;;;;;;;;27.80;45.20;;;;;;5039174;28;19912;-78
2022/07/05 11:16:25;;;;;;;;;;;27.80;45.00;;;;;;5036516;28;19923;-77
2022/07/05 11:18:51;;;;;;;;;;;27.30;46.20;;;;;;5035926;28;20016;-76
2022/07/05 11:21:20;;;;;;;;;;;27.60;45.20;;;;;;5033836;28;19916;-76
2022/07/05 11:23:46;;;;;;;;;;;;;;;;;;5039896;28;19948;-76
2022/07/05 11:26:13;;;;;;;;;;;27.60;45.60;;;;;;5035387;28;20007;-76
2022/07/05 11:28:43;;;;;;;;;;;28.50;46.50;;;;;;5041838;28;19988;-77
2022/07/05 11:31:09;;;;;;;;;;;27.70;44.50;;;;;;5039697;28;19916;-76
2022/07/05 11:33:36;;;;;;;;;;;28.10;47.70;;;;;;5036067;28;19916;-77
2022/07/05 11:36:03;;;;;;;;;;;28.30;46.30;;;;;;5036664;28;19917;-76
2022/07/05 11:38:30;;;;;;;;;;;;;;;;;;5036082;28;19961;-77
2022/07/05 11:41:10;;;;;;;;;;;27.50;48.10;;;;;;5035890;28;19908;-77
2022/07/05 11:43:35;;;;;;;;;;;27.40;46.30;;;;;;5033154;28;19920;-77
2022/07/05 11:46:02;;;;;;;;;;;;;;;;;;5038103;28;19920;-77
2022/07/05 11:48:28;;;;;;;;;;;27.40;47.70;;;;;;5043612;28;19939;-76
2022/07/05 11:50:54;;;;;;;;;;;27.50;47.30;;;;;;5044055;28;19915;-76
2022/07/05 11:53:30;;;;;;;;;;;27.70;49.10;;;;;;5027889;28;19909;-76
2022/07/05 11:55:56;;;;;;;;;;;;;;;;;;5038797;28;20325;-78
2022/07/05 11:58:22;;;;;;;;;;;28.40;44.70;;;;;;5041886;28;20009;-78
2022/07/05 12:00:53;;;;;;;;;;;27.40;45.60;;;;;;5049773;28;19909;-77
2022/07/05 12:03:18;;;;;;;;;;;28.50;48.80;;;;;;5045137;28;19960;-77
2022/07/05 12:05:44;;;;;;;;;;;27.70;47.10;;;;;;5050181;28;19970;-77
2022/07/05 12:08:09;;;;;;;;;;;27.60;44.70;;;;;;5044862;28;19913;-77
2022/07/05 12:13:20;;;;;;;;;;;28.80;47.10;;;;;;5044072;28;19916;-77
2022/07/05 12:15:46;;;;;;;;;;;27.80;43.50;;;;;;5045166;28;19908;-76
2022/07/05 12:18:11;;;;;;;;;;;28.90;45.70;;;;;;5047580;28;20011;-77
2022/07/05 12:20:38;;;;;;;;;;;28.00;44.40;;;;;;5050302;28;20000;-76
2022/07/05 12:23:04;;;;;;;;;;;28.40;46.70;;;;;;5036866;28;19909;-78
2022/07/05 12:25:30;;;;;;;;;;;29.40;45.50;;;;;;5035831;28;19908;-76
2022/07/05 12:27:57;;;;;;;;;;;29.50;42.90;;;;;;5040032;28;19916;-78
2022/07/05 12:30:22;;;;;;;;;;;28.70;42.40;;;;;;5046027;28;20673;-77
2022/07/05 12:32:56;;;;;;;;;;;29.80;42.70;;;;;;5044542;28;20364;-76
2022/07/05 12:35:40;;;;;;;;;;;30.30;44.10;;;;;;5033008;28;19959;-76
2022/07/05 12:38:07;;;;;;;;;;;30.40;43.30;;;;;;5035888;28;19917;-78
2022/07/05 12:40:33;;;;;;;;;;;29.20;41.20;;;;;;5038889;28;19967;-77
2022/07/05 12:43:02;;;;;;;;;;;24.50;39.60;;;;;;5033852;28;19916;-77
2022/07/05 12:45:28;;;;;;;;;;;30.00;43.00;;;;;;5044720;28;19913;-75
2022/07/05 12:47:54;;;;;;;;;;;29.90;43.00;;;;;;5040148;28;20743;-76
2022/07/05 12:50:21;;;;;;;;;;;29.70;45.70;;;;;;5040750;28;20331;-76
2022/07/05 12:53:00;;;;;;;;;;;30.00;44.90;;;;;;5037515;28;19966;-76
2022/07/05 12:58:20;;;;;;;;;;;28.80;42.60;;;;;;5044178;28;19974;-76
2022/07/05 13:00:45;;;;;;;;;;;27.80;44.40;;;;;;5047269;28;19912;-76
2022/07/05 13:03:11;;;;;;;;;;;23.50;42.50;;;;;;5039025;28;19917;-74
2022/07/05 13:05:36;;;;;;;;;;;28.50;46.60;;;;;;5039532;28;20617;-76
2022/07/05 13:08:02;;;;;;;;;;;28.50;47.00;;;;;;5050230;28;19921;-76
2022/07/05 13:10:31;;;;;;;;;;;28.60;46.50;;;;;;5039862;28;19912;-76
2022/07/05 13:12:57;;;;;;;;;;;27.60;45.50;;;;;;5038357;28;19937;-77
2022/07/05 13:15:23;;;;;;;;;;;;;;;;;;5036306;28;20558;-76
2022/07/05 13:17:49;;;;;;;;;;;28.40;45.50;;;;;;5043341;28;19921;-76
2022/07/05 13:20:17;;;;;;;;;;;27.90;46.90;;;;;;5026931;28;19916;-76
2022/07/05 13:22:43;;;;;;;;;;;28.40;43.90;;;;;;5044447;28;19913;-76
2022/07/05 13:25:10;;;;;;;;;;;28.10;46.60;;;;;;5034896;28;19959;-76
2022/07/05 13:27:35;;;;;;;;;;;28.20;45.40;;;;;;5039854;28;19948;-76
2022/07/05 13:30:01;;;;;;;;;;;28.40;44.20;;;;;;5036474;28;19944;-77
2022/07/05 13:32:27;;;;;;;;;;;29.20;45.30;;;;;;5039839;28;19923;-76
2022/07/05 13:34:52;;;;;;;;;;;28.30;42.70;;;;;;5049106;28;19916;-76
2022/07/05 13:37:18;;;;;;;;;;;28.40;42.40;;;;;;5045188;28;19963;-76
2022/07/05 13:39:43;;;;;;;;;;;28.60;43.90;;;;;;5041670;28;19909;-76
2022/07/05 13:42:09;;;;;;;;;;;28.80;42.70;;;;;;5040159;28;20257;-76
2022/07/05 13:44:34;;;;;;;;;;;28.50;43.90;;;;;;5044387;28;19909;-75
2022/07/05 13:47:00;;;;;;;;;;;28.80;42.70;;;;;;5041787;28;19919;-75
2022/07/05 13:49:25;;;;;;;;;;;29.20;44.60;;;;;;5044844;28;19924;-76
2022/07/05 13:51:51;;;;;;;;;;;28.70;42.90;;;;;;5047897;28;19917;-76
2022/07/05 13:54:16;;;;;;;;;;;28.50;43.20;;;;;;5036930;28;19908;-76
2022/07/05 13:56:44;;;;;;;;;;;29.50;43.80;;;;;;5032198;28;19909;-76
2022/07/05 13:59:10;;;;;;;;;;;28.30;44.30;;;;;;5039880;28;20365;-76
2022/07/05 14:01:35;;;;;;;;;;;28.40;44.90;;;;;;5032040;28;19916;-76
2022/07/05 14:04:04;;;;;;;;;;;27.50;47.00;;;;;;5039225;28;19924;-76
2022/07/05 14:06:30;;;;;;;;;;;27.60;45.50;;;;;;5037165;28;19960;-76
2022/07/05 14:08:56;;;;;;;;;;;27.50;45.70;;;;;;5040535;28;19960;-76
2022/07/05 14:11:21;;;;;;;;;;;27.80;46.80;;;;;;5037800;28;20619;-76
2022/07/05 14:13:47;;;;;;;;;;;28.00;45.90;;;;;;5026732;28;20003;-77
2022/07/05 14:16:12;;;;;;;;;;;28.70;44.50;;;;;;5021280;28;20004;-75
2022/07/05 14:18:38;;;;;;;;;;;29.30;44.10;;;;;;5047796;28;20375;-75
2022/07/05 14:21:03;;;;;;;;;;;29.20;42.20;;;;;;5040766;28;19908;-76
2022/07/05 14:23:29;;;;;;;;;;;28.60;44.40;;;;;;5028461;28;19917;-76
2022/07/05 14:25:54;;;;;;;;;;;27.70;45.10;;;;;;5029016;28;20380;-76
2022/07/05 14:28:20;;;;;;;;;;;27.40;44.60;;;;;;5032493;28;20365;-75
2022/07/05 14:30:46;;;;;;;;;;;27.50;45.10;;;;;;5040462;28;19916;-75
2022/07/05 14:33:12;;;;;;;;;;;27.20;45.90;;;;;;5036405;28;19924;-76
2022/07/05 14:35:38;;;;;;;;;;;;;;;;;;5045400;28;19908;-75
2022/07/05 14:38:04;;;;;;;;;;;26.90;46.20;;;;;;5041875;28;19917;-76
2022/07/05 14:40:30;;;;;;;;;;;26.60;47.40;;;;;;5043619;28;19916;-76
2022/07/05 14:42:56;;;;;;;;;;;27.00;46.70;;;;;;5043535;28;19962;-77
2022/07/05 14:45:21;;;;;;;;;;;28.20;45.00;;;;;;5032795;28;19932;-76
2022/07/05 14:47:47;;;;;;;;;;;27.50;43.20;;;;;;5041131;28;19912;-76
2022/07/05 14:50:14;;;;;;;;;;;28.10;44.70;;;;;;5043520;28;20653;-75